Time;durP1;ratioP1;P1;durP2;ratioP2;P2;SDS_P1;SDS_P2;PMS_P1;PMS_P2;Temp;Humidity;BMP_temperature;BMP_pressure;BME280_temperature;BME280_humidity;BME280_pressure;Samples;Min_cycle;Max_cycle;Signal;HPM_P1;HPM_P2
2021/07/27 00:01:12;;;;;;;8.88;5.38;;;;;;;22.82;64.25;100497.25;3501293;40;20909;-70
2021/07/27 00:03:41;;;;;;;9.15;5.50;;;;;;;22.33;64.95;100507.56;3503832;41;20029;-70
2021/07/27 00:06:09;;;;;;;9.13;5.30;;;;;;;22.79;64.40;100512.19;3503868;41;20425;-70
2021/07/27 00:08:35;;;;;;;10.43;5.43;;;;;;;22.61;64.81;100503.94;3504260;41;20058;-71
2021/07/27 00:11:05;;;;;;;13.43;6.57;;;;;;;22.69;63.92;100506.00;3504101;40;20045;-72
2021/07/27 00:13:31;;;;;;;14.02;7.32;;;;;;;22.51;63.75;100507.22;3504077;41;20057;-71
2021/07/27 00:21:08;;;;;;;9.82;6.68;;;;;;;22.67;64.17;100507.88;3512816;40;20065;-71
2021/07/27 00:23:37;;;;;;;9.38;5.65;;;;;;;22.43;65.53;100506.00;3513573;40;20040;-71
2021/07/27 00:26:12;;;;;;;11.63;6.53;;;;;;;22.27;65.77;100502.78;3513283;41;20085;-71
2021/07/27 00:28:41;;;;;;;7.63;5.40;;;;;;;22.08;66.52;100515.34;3521071;41;20372;-70
2021/07/27 00:31:14;;;;;;;10.15;6.15;;;;;;;22.38;65.67;100500.28;3513172;41;20031;-72
2021/07/27 00:33:41;;;;;;;8.20;5.40;;;;;;;22.28;65.26;100501.84;3513445;40;20491;-70
2021/07/27 00:36:09;;;;;;;8.65;5.20;;;;;;;22.59;64.44;100499.78;3521931;41;20029;-72
2021/07/27 00:38:37;;;;;;;8.50;5.28;;;;;;;22.36;64.43;100499.56;3522690;40;20037;-71
2021/07/27 00:41:02;;;;;;;7.57;4.82;;;;;;;22.52;64.08;100504.56;3522445;41;20032;-71
2021/07/27 00:43:31;;;;;;;10.55;5.07;;;;;;;22.76;62.93;100504.66;3513501;40;20035;-72
2021/07/27 00:48:29;;;;;;;7.63;5.10;;;;;;;22.66;63.30;100501.03;3522837;23;20061;31
2021/07/27 00:50:57;;;;;;;10.75;5.05;;;;;;;22.89;63.03;100498.50;3483700;41;20098;-71
2021/07/27 00:55:54;;;;;;;7.25;4.75;;;;;;;22.74;63.81;100501.34;3523459;40;20068;-73
2021/07/27 01:00:51;;;;;;;6.68;4.82;;;;;;;22.60;64.66;100499.66;3503869;40;20049;-69
2021/07/27 01:05:47;;;;;;;6.45;4.78;;;;;;;22.53;64.09;100502.75;3504683;40;20086;-69
2021/07/27 01:08:13;;;;;;;5.70;4.65;;;;;;;22.70;63.19;100494.69;3512528;41;20042;-70
2021/07/27 01:10:39;;;;;;;6.35;4.90;;;;;;;22.57;63.70;100496.44;3505115;41;20041;-71
2021/07/27 01:13:09;;;;;;;8.07;5.10;;;;;;;22.47;64.49;100496.25;3504399;41;20034;-71
2021/07/27 01:15:35;;;;;;;10.73;5.45;;;;;;;22.37;64.74;100498.66;3513088;40;20025;-74
2021/07/27 01:18:09;;;;;;;10.63;5.13;;;;;;;22.70;64.43;100511.06;3504485;41;20029;-71
2021/07/27 01:38:06;;;;;;;6.63;5.20;;;;;;;22.08;65.48;100494.63;3476048;41;20029;-71
2021/07/27 01:40:40;;;;;;;8.60;5.35;;;;;;;21.71;66.85;100487.56;3475968;41;20039;-71
2021/07/27 01:43:08;;;;;;;9.25;5.60;;;;;;;21.47;68.28;100496.94;3476095;41;20482;-73
2021/07/27 01:45:34;;;;;;;8.38;5.68;;;;;;;21.18;69.16;100487.63;3467118;41;20034;-71
2021/07/27 01:48:02;;;;;;;8.73;5.78;;;;;;;21.25;68.69;100489.72;3476137;41;20058;-73
2021/07/27 01:50:28;;;;;;;9.40;5.28;;;;;;;20.99;69.69;100487.09;3475824;41;20027;-71
2021/07/27 02:00:23;;;;;;;8.13;5.80;;;;;;;21.35;69.01;100479.63;3500592;41;20603;-74
2021/07/27 02:02:55;;;;;;;7.68;5.72;;;;;;;21.25;69.39;100478.56;3504675;40;20089;-74
2021/07/27 02:05:22;;;;;;;8.23;5.57;;;;;;;21.74;67.88;100474.44;3505033;40;20455;-71
2021/07/27 02:07:51;;;;;;;9.32;5.47;;;;;;;21.77;67.68;100483.78;3504785;40;20478;-71
2021/07/27 02:15:16;;;;;;;8.98;5.45;;;;;;;21.41;68.93;100481.81;3503862;40;20065;-70
2021/07/27 02:17:45;;;;;;;5.80;5.10;;;;;;;21.48;68.19;100488.25;3504962;40;20793;-70
2021/07/27 02:20:16;;;;;;;10.73;5.13;;;;;;;21.52;67.92;100485.38;3504948;40;20041;-70
2021/07/27 02:22:42;;;;;;;;;;;;;;;21.74;67.92;100489.97;3505136;41;20397;-71
2021/07/27 02:25:10;;;;;;;9.90;5.82;;;;;;;21.77;67.67;100489.75;3504815;41;19939;-70
2021/07/27 02:27:36;;;;;;;9.05;5.43;;;;;;;21.54;68.26;100495.63;3504686;40;20045;-70
2021/07/27 02:32:32;;;;;;;8.45;5.03;;;;;;;21.08;69.94;100494.28;3504032;40;20045;-73
2021/07/27 02:34:58;;;;;;;8.73;5.38;;;;;;;21.47;68.91;100484.00;3504744;41;20073;-69
2021/07/27 02:37:31;;;;;;;7.63;5.40;;;;;;;21.42;68.63;100483.47;3502489;41;20100;-69
2021/07/27 02:48:05;;;;;;;9.57;5.50;;;;;;;21.61;68.73;100485.69;3511411;41;20151;-71
2021/07/27 02:50:35;;;;;;;11.35;5.80;;;;;;;21.52;68.55;100481.94;3490396;41;20029;-71
2021/07/27 02:53:02;;;;;;;7.65;5.50;;;;;;;21.76;67.60;100485.53;3493781;41;20041;-71
2021/07/27 02:55:28;;;;;;;9.05;5.32;;;;;;;21.68;68.90;100487.78;3493701;41;20045;-71
2021/07/27 02:57:54;;;;;;;10.15;5.53;;;;;;;21.25;70.24;100494.06;3493839;41;20026;-70
2021/07/27 03:02:49;;;;;;;7.50;5.47;;;;;;;21.40;69.73;100488.75;3502728;40;20069;-74
2021/07/27 03:05:17;;;;;;;9.57;5.57;;;;;;;21.50;69.95;100482.06;3503477;41;20044;-71
2021/07/27 03:07:50;;;;;;;11.23;5.68;;;;;;;21.64;67.73;100488.06;3504559;41;20105;-70
2021/07/27 03:10:20;;;;;;;10.63;5.68;;;;;;;21.65;67.62;100484.56;3512453;40;20037;-71
2021/07/27 03:12:55;;;;;;;8.90;5.72;;;;;;;21.40;69.05;100488.75;3504250;40;20084;-69
2021/07/27 03:20:20;;;;;;;9.88;5.43;;;;;;;21.44;68.81;100492.78;3502919;40;20062;-71
2021/07/27 03:32:48;;;;;;;9.25;5.65;;;;;;;21.74;69.53;100500.31;3502758;40;20061;-68
2021/07/27 03:37:43;;;;;;;15.07;6.20;;;;;;;22.16;68.19;100501.88;3521733;40;20044;-71
2021/07/27 03:53:10;;;;;;;16.20;7.80;;;;;;;22.02;67.68;100497.59;1250518;23;20289;-73
2021/07/27 03:58:05;;;;;;;22.77;9.32;;;;;;;21.86;69.22;100498.72;3491467;40;20073;-72
2021/07/27 04:11:06;;;;;;;26.80;13.05;;;;;;;22.21;67.06;100512.72;3550680;23;20554;-73
2021/07/27 04:13:58;;;;;;;30.83;13.73;;;;;;;22.13;68.41;100512.41;3553778;23;20988;-72
2021/07/27 04:18:52;;;;;;;23.80;11.45;;;;;;;22.11;67.94;100512.53;3512864;40;20102;-74
2021/07/27 04:26:40;;;;;;;14.52;7.82;;;;;;;22.37;67.04;100509.00;3572971;23;20135;-74
2021/07/27 04:29:06;;;;;;;15.00;7.82;;;;;;;22.12;67.63;100516.78;3507554;41;20707;-71
2021/07/27 04:31:32;;;;;;;16.58;8.60;;;;;;;22.26;68.20;100514.06;3506455;41;20039;-70
2021/07/27 04:33:59;;;;;;;15.05;8.07;;;;;;;21.76;69.41;100513.16;3494693;41;20048;-70
2021/07/27 04:36:26;;;;;;;17.45;7.65;;;;;;;21.80;69.26;100512.88;3509576;41;20444;-71
2021/07/27 04:54:41;;;;;;;9.88;7.32;;;;;;;22.44;67.60;100523.19;3540218;23;20108;-73
2021/07/27 04:59:38;;;;;;;13.68;7.65;;;;;;;22.60;67.62;100522.19;3603573;23;20302;-73
2021/07/27 05:05:01;;;;;;;13.90;6.90;;;;;;;22.52;68.74;100530.47;3540087;23;20101;-72
2021/07/27 05:09:56;;;;;;;12.40;6.30;;;;;;;23.37;65.19;100533.13;3493391;40;20661;-70
2021/07/27 05:15:01;;;;;;;8.90;6.47;;;;;;;23.36;65.60;100533.22;3627179;23;20105;31
2021/07/27 05:20:34;;;;;;;8.68;6.32;;;;;;;23.87;63.20;100538.03;3611722;23;21048;-73
2021/07/27 05:27:58;;;;;;;11.90;6.25;;;;;;;24.12;62.53;100536.25;3575486;23;20551;-74
2021/07/27 05:33:15;;;;;;;11.25;6.00;;;;;;;25.11;59.95;100531.09;3507324;40;20092;-72
2021/07/27 05:35:41;;;;;;;9.98;5.85;;;;;;;25.28;60.28;100529.72;3503515;41;20041;-72
2021/07/27 05:38:07;;;;;;;7.40;5.65;;;;;;;25.39;59.82;100529.72;3504911;41;20057;-71
2021/07/27 05:40:34;;;;;;;10.43;6.05;;;;;;;25.13;59.77;100525.75;3504928;41;20045;-73
2021/07/27 05:43:00;;;;;;;8.95;5.55;;;;;;;25.75;58.86;100526.75;3537561;23;23113;-72
2021/07/27 05:45:26;;;;;;;8.30;5.55;;;;;;;25.46;58.77;100529.13;3495106;41;20356;-70
2021/07/27 05:48:01;;;;;;;8.40;5.95;;;;;;;25.48;57.56;100535.03;3495041;41;20306;-72
2021/07/27 05:50:36;;;;;;;9.73;5.95;;;;;;;25.82;57.36;100527.91;3494894;41;20042;-72
2021/07/27 05:53:02;;;;;;;6.70;5.50;;;;;;;25.96;55.84;100529.38;3495002;41;20044;-71
2021/07/27 05:55:40;;;;;;;7.72;5.50;;;;;;;26.12;55.41;100533.22;3494696;41;20033;-71
2021/07/27 05:58:07;;;;;;;7.68;5.05;;;;;;;25.90;55.99;100528.09;3495312;41;20425;-72
2021/07/27 06:00:35;;;;;;;8.00;5.10;;;;;;;25.84;55.72;100530.38;3494891;41;20473;-68
2021/07/27 06:03:05;;;;;;;11.30;4.70;;;;;;;26.07;55.32;100537.97;3494266;41;20105;-70
2021/07/27 06:05:32;;;;;;;7.85;4.93;;;;;;;26.39;54.36;100533.50;3494488;41;20069;-69
2021/07/27 06:07:58;;;;;;;6.78;4.80;;;;;;;26.64;52.59;100532.25;3494560;41;20041;-71
2021/07/27 06:10:26;;;;;;;7.18;4.30;;;;;;;26.62;51.83;100528.94;3494817;41;20037;-70
2021/07/27 06:12:54;;;;;;;6.82;4.30;;;;;;;26.29;52.92;100537.00;3527685;24;20044;-72
2021/07/27 06:20:23;;;;;;;6.05;4.72;;;;;;;27.57;51.04;100524.91;3504874;40;20050;-74
2021/07/27 06:22:48;;;;;;;5.05;4.55;;;;;;;27.73;50.39;100517.34;3504431;41;20039;-70
2021/07/27 06:25:14;;;;;;;9.00;4.57;;;;;;;27.39;49.13;100527.38;3504169;41;20337;-70
2021/07/27 06:27:40;;;;;;;7.53;4.15;;;;;;;27.65;48.51;100520.66;3504375;41;20037;-74
2021/07/27 06:30:09;;;;;;;5.95;4.40;;;;;;;28.15;49.96;100516.88;3504091;41;20041;-74
2021/07/27 06:32:37;;;;;;;9.32;4.68;;;;;;;28.21;49.54;100523.31;3503967;41;20041;-72
2021/07/27 06:35:03;;;;;;;8.60;4.70;;;;;;;28.70;48.91;100525.66;3504307;40;20049;-72
2021/07/27 06:37:29;;;;;;;5.43;4.05;;;;;;;28.34;49.14;100517.78;3503984;41;20041;-72
2021/07/27 06:39:54;;;;;;;7.65;4.32;;;;;;;27.78;48.06;100515.97;3504139;41;20428;-72
2021/07/27 06:42:20;;;;;;;9.68;4.93;;;;;;;28.20;48.45;100519.06;3511976;41;20045;-71
2021/07/27 06:47:14;;;;;;;7.97;4.93;;;;;;;28.91;47.56;100518.38;3503221;40;20468;-73
2021/07/27 06:49:40;;;;;;;8.88;4.68;;;;;;;28.38;46.92;100511.31;3503684;41;20058;-71
2021/07/27 06:52:05;;;;;;;9.38;5.00;;;;;;;29.04;45.46;100516.22;3503777;40;20033;-71
2021/07/27 06:54:33;;;;;;;11.98;4.80;;;;;;;28.85;45.50;100513.72;3503656;41;20037;-73
2021/07/27 06:56:58;;;;;;;9.98;4.55;;;;;;;29.37;44.59;100511.34;3502966;41;20037;-71
2021/07/27 06:59:24;;;;;;;9.93;5.03;;;;;;;29.07;45.28;100512.50;3503717;41;20041;-72
2021/07/27 07:01:50;;;;;;;11.88;5.00;;;;;;;29.50;44.48;100504.75;3503503;41;20054;-73
2021/07/27 07:04:16;;;;;;;6.30;4.70;;;;;;;28.91;44.79;100507.06;3503245;41;20040;-72
2021/07/27 07:06:41;;;;;;;8.52;4.43;;;;;;;29.69;42.79;100504.56;3503226;41;20128;-75
2021/07/27 07:09:07;;;;;;;8.95;4.60;;;;;;;30.04;44.02;100503.72;3503173;41;20440;-74
2021/07/27 07:11:32;;;;;;;7.40;4.57;;;;;;;29.91;42.98;100500.69;3503673;41;20037;-72
2021/07/27 07:13:58;;;;;;;8.30;4.38;;;;;;;29.60;42.61;100489.75;3511155;41;20380;-71
2021/07/27 07:16:23;;;;;;;7.72;4.55;;;;;;;29.96;42.98;100498.41;3503199;41;20366;-73
2021/07/27 07:18:49;;;;;;;6.57;4.78;;;;;;;29.02;44.11;100497.22;3510608;41;20425;-72
2021/07/27 07:21:15;;;;;;;9.02;4.93;;;;;;;30.14;42.88;100501.81;3502780;41;20029;-74
2021/07/27 07:23:40;;;;;;;13.43;4.68;;;;;;;30.08;41.85;100501.59;3503034;41;20032;-72
2021/07/27 07:26:07;;;;;;;11.90;5.38;;;;;;;30.80;41.07;100502.78;3503140;41;20037;-72
2021/07/27 07:28:34;;;;;;;14.90;5.78;;;;;;;30.77;40.88;100504.91;3501997;41;20410;-73
2021/07/27 07:31:03;;;;;;;10.25;4.53;;;;;;;30.45;42.51;100497.72;3502719;41;20045;-72
2021/07/27 07:33:28;;;;;;;9.80;4.53;;;;;;;30.52;40.42;100505.81;3501844;41;20382;-73
2021/07/27 07:35:54;;;;;;;10.35;4.63;;;;;;;30.69;41.40;100508.34;3502246;41;20112;-71
2021/07/27 07:38:19;;;;;;;8.95;3.92;;;;;;;31.20;39.59;100504.69;3502316;41;20040;-74
2021/07/27 07:40:45;;;;;;;8.98;4.40;;;;;;;31.44;38.86;100506.56;3509634;41;20039;-72
2021/07/27 07:43:10;;;;;;;14.27;4.93;;;;;;;31.67;38.92;100506.75;3502006;41;20049;-76
2021/07/27 07:45:37;;;;;;;11.80;5.00;;;;;;;31.63;39.25;100510.69;3497844;41;23012;-73
2021/07/27 07:48:03;;;;;;;6.93;4.25;;;;;;;30.55;40.29;100508.94;3502024;41;20093;-73
2021/07/27 07:50:29;;;;;;;8.98;4.30;;;;;;;31.15;39.04;100498.28;3501476;41;20036;-71
2021/07/27 07:53:01;;;;;;;6.65;4.10;;;;;;;31.34;38.46;100503.22;3502090;41;20036;-72
2021/07/27 07:55:31;;;;;;;9.27;4.35;;;;;;;31.18;38.61;100516.38;3502561;41;20048;-72
2021/07/27 07:57:57;;;;;;;8.13;4.03;;;;;;;31.52;38.26;100504.75;3493323;41;20033;-72
2021/07/27 08:00:23;;;;;;;5.40;3.80;;;;;;;31.63;39.24;100496.53;3501579;41;20029;-73
2021/07/27 08:02:52;;;;;;;7.43;4.03;;;;;;;32.04;37.45;100502.63;3493438;41;20041;-71
2021/07/27 08:05:18;;;;;;;7.80;4.13;;;;;;;31.40;37.17;100507.88;3502220;41;20033;-73
2021/07/27 08:07:44;;;;;;;7.20;3.90;;;;;;;31.33;37.99;100506.88;3493577;41;20097;-71
2021/07/27 08:10:10;;;;;;;7.38;4.22;;;;;;;32.22;37.15;100503.22;3502160;41;20041;-72
2021/07/27 08:12:36;;;;;;;9.20;4.20;;;;;;;32.25;37.98;100500.25;3501784;41;20037;-72
2021/07/27 08:15:02;;;;;;;6.05;3.95;;;;;;;32.22;36.16;100503.22;3502034;41;20049;-73
2021/07/27 08:17:28;;;;;;;7.68;4.07;;;;;;;32.36;36.08;100502.53;3501772;41;20112;-71
2021/07/27 08:19:53;;;;;;;6.22;4.00;;;;;;;31.97;37.17;100495.56;3502308;41;20377;-72
2021/07/27 08:22:19;;;;;;;5.72;4.05;;;;;;;32.17;36.38;100496.84;3493351;40;20045;-71
2021/07/27 08:24:44;;;;;;;5.45;4.05;;;;;;;32.42;35.54;100488.69;3494385;41;20090;-72
2021/07/27 08:27:10;;;;;;;5.38;3.88;;;;;;;33.22;34.69;100490.09;3501868;41;20056;-74
2021/07/27 08:29:36;;;;;;;5.57;3.90;;;;;;;32.31;35.29;100496.09;3499785;41;20120;-73
2021/07/27 08:32:10;;;;;;;6.65;3.80;;;;;;;32.72;34.83;100496.81;3492397;41;20317;-72
2021/07/27 08:34:42;;;;;;;7.65;3.72;;;;;;;32.75;34.32;100489.38;3502568;41;20344;-72
2021/07/27 08:37:08;;;;;;;10.93;4.00;;;;;;;33.13;35.13;100490.31;3503740;41;20027;-71
2021/07/27 08:42:05;;;;;;;8.55;3.65;;;;;;;33.00;34.95;100476.91;3521083;41;20037;-74
2021/07/27 08:47:01;;;;;;;7.97;4.13;;;;;;;33.25;33.20;100481.00;3495174;41;20090;-73
2021/07/27 08:49:29;;;;;;;7.63;3.63;;;;;;;32.58;34.68;100481.72;3503549;40;20421;-72
2021/07/27 08:51:54;;;;;;;5.95;4.03;;;;;;;32.53;34.52;100484.88;3503241;41;20033;-73
2021/07/27 08:54:19;;;;;;;6.85;3.78;;;;;;;33.33;34.71;100480.13;3503047;40;20083;-71
2021/07/27 08:56:49;;;;;;;11.38;3.80;;;;;;;33.41;33.47;100490.59;3492061;41;20053;-73
2021/07/27 08:59:16;;;;;;;6.32;4.03;;;;;;;33.43;34.56;100484.16;3492710;41;20037;-73
2021/07/27 09:01:42;;;;;;;5.00;4.20;;;;;;;33.62;34.19;100482.88;3492612;41;20042;-74
2021/07/27 09:04:07;;;;;;;9.93;3.83;;;;;;;33.50;33.79;100473.72;3492298;41;20038;-72
2021/07/27 09:06:33;;;;;;;5.95;4.07;;;;;;;33.86;34.07;100480.81;3492517;41;20465;-74
2021/07/27 09:09:11;;;;;;;6.32;3.53;;;;;;;33.20;33.67;100481.53;3492685;41;20033;-75
2021/07/27 09:11:45;;;;;;;6.28;4.05;;;;;;;33.28;34.11;100480.63;3493404;41;20042;-74
2021/07/27 09:14:19;;;;;;;5.68;3.78;;;;;;;33.70;32.46;100478.34;3494215;41;20033;-72
2021/07/27 09:16:51;;;;;;;5.15;3.85;;;;;;;33.77;32.68;100476.63;3494188;41;20039;-74
2021/07/27 09:19:17;;;;;;;9.00;3.70;;;;;;;33.83;32.34;100465.34;3494279;41;20054;-73
2021/07/27 09:21:43;;;;;;;5.95;3.95;;;;;;;34.30;32.71;100470.31;3494395;41;20042;-72
2021/07/27 09:24:10;;;;;;;4.93;3.83;;;;;;;34.15;32.72;100469.47;3503649;41;20140;-70
2021/07/27 09:26:36;;;;;;;7.90;4.22;;;;;;;34.20;33.23;100471.56;3503311;41;20127;-75
2021/07/27 09:29:05;;;;;;;8.45;4.03;;;;;;;34.44;33.45;100477.41;3504211;41;20033;-71
2021/07/27 09:31:32;;;;;;;7.28;3.95;;;;;;;34.18;31.82;100468.28;3503895;41;20040;-71
2021/07/27 09:34:08;;;;;;;10.13;3.83;;;;;;;34.08;32.17;100468.56;3502518;41;20040;-72
2021/07/27 09:36:34;;;;;;;7.28;4.03;;;;;;;33.71;32.27;100469.44;3503131;41;20044;-72
2021/07/27 09:39:03;;;;;;;5.32;3.63;;;;;;;33.70;32.70;100465.16;3503507;41;20395;-74
2021/07/27 09:41:29;;;;;;;5.18;3.80;;;;;;;34.32;32.95;100470.09;3503795;41;20085;-73
2021/07/27 09:43:59;;;;;;;6.40;4.05;;;;;;;34.37;32.08;100468.53;3503754;41;20056;-72
2021/07/27 09:46:26;;;;;;;6.03;4.00;;;;;;;33.95;31.83;100473.66;3503115;41;20041;-73
2021/07/27 09:48:53;;;;;;;5.78;3.70;;;;;;;34.60;31.12;100471.09;3498947;41;20093;-71
2021/07/27 09:51:18;;;;;;;7.82;3.97;;;;;;;34.30;31.81;100462.38;3484656;41;20309;-73
2021/07/27 09:53:45;;;;;;;9.93;4.00;;;;;;;34.16;31.44;100470.28;3483316;41;20831;-72
2021/07/27 09:56:11;;;;;;;7.50;4.22;;;;;;;34.73;31.76;100464.13;3504052;41;20334;-73
2021/07/27 09:58:37;;;;;;;6.07;4.00;;;;;;;34.84;31.40;100476.84;3503747;41;20052;-73
2021/07/27 10:01:24;;;;;;;6.65;3.80;;;;;;;34.36;31.12;100466.91;3504213;41;20041;-74
2021/07/27 10:04:03;;;;;;;7.70;4.07;;;;;;;34.76;30.68;100463.78;3503425;41;20049;-72
2021/07/27 10:06:35;;;;;;;9.00;3.95;;;;;;;35.22;30.76;100453.66;3503849;41;20037;-73
2021/07/27 10:09:01;;;;;;;4.25;3.85;;;;;;;35.14;29.78;100455.63;3503756;41;20097;-73
2021/07/27 10:11:39;;;;;;;6.45;4.30;;;;;;;34.25;30.97;100456.00;3503984;41;20033;-73
2021/07/27 10:14:11;;;;;;;7.90;4.00;;;;;;;35.26;29.49;100452.28;3503956;41;20409;-73
2021/07/27 10:16:36;;;;;;;6.85;4.00;;;;;;;35.07;30.79;100445.00;3503284;41;20041;-73
2021/07/27 10:19:22;;;;;;;6.05;4.28;;;;;;;33.98;30.98;100444.25;3503550;41;20088;-72
2021/07/27 10:22:01;;;;;;;5.95;4.28;;;;;;;35.34;29.56;100446.84;3503430;41;20052;-73
2021/07/27 10:24:41;;;;;;;7.53;4.43;;;;;;;35.08;30.34;100443.16;3502047;41;20041;-72
2021/07/27 10:27:11;;;;;;;8.82;4.28;;;;;;;35.50;30.66;100438.66;3503671;41;20041;-76
2021/07/27 10:29:37;;;;;;;7.47;4.55;;;;;;;35.20;29.41;100431.88;3503514;41;20033;-72
2021/07/27 10:32:22;;;;;;;7.70;4.60;;;;;;;35.33;30.45;100424.06;3504106;41;20136;-73
2021/07/27 10:34:48;;;;;;;5.85;4.43;;;;;;;34.65;30.31;100421.13;3503384;41;20037;-76
2021/07/27 10:37:16;;;;;;;10.10;4.75;;;;;;;35.04;30.29;100418.09;3503648;41;20049;-73
2021/07/27 10:39:59;;;;;;;7.53;4.57;;;;;;;35.80;29.65;100423.38;3503401;41;20048;-71
2021/07/27 10:42:37;;;;;;;5.55;4.40;;;;;;;35.96;29.79;100416.97;3503064;41;20047;-71
2021/07/27 10:45:03;;;;;;;6.30;4.50;;;;;;;35.42;29.45;100422.88;3503297;41;20057;-73
2021/07/27 10:47:29;;;;;;;6.53;4.63;;;;;;;36.02;29.55;100421.50;3503160;41;20041;-75
2021/07/27 10:50:08;;;;;;;7.43;4.63;;;;;;;35.05;30.10;100425.03;3510731;41;20048;-73
2021/07/27 10:52:34;;;;;;;8.27;4.80;;;;;;;35.79;29.22;100419.13;3503085;41;20314;-73
2021/07/27 10:55:01;;;;;;;6.57;4.47;;;;;;;35.96;28.88;100409.84;3496770;41;20049;-73
2021/07/27 10:57:37;;;;;;;8.18;5.20;;;;;;;35.57;29.97;100409.59;3491954;41;20716;-74
2021/07/27 11:00:05;;;;;;;7.00;4.90;;;;;;;34.73;30.02;100413.09;3509813;41;20041;-73
2021/07/27 11:11:10;;;;;;;6.60;5.20;;;;;;;35.49;29.34;100396.53;3523010;41;20044;-74
2021/07/27 11:13:37;;;;;;;6.22;4.55;;;;;;;36.03;29.52;100399.31;3493336;41;20025;-74
2021/07/27 11:16:03;;;;;;;6.72;4.45;;;;;;;36.31;29.04;100400.03;3493917;41;20038;-72
2021/07/27 11:18:29;;;;;;;5.95;4.68;;;;;;;36.68;28.85;100393.41;3493948;41;20025;-72
2021/07/27 11:20:56;;;;;;;8.32;4.75;;;;;;;36.24;28.93;100388.59;3493456;41;20041;-73
2021/07/27 11:23:22;;;;;;;8.57;4.70;;;;;;;35.83;28.41;100385.94;3493472;41;20041;-72
2021/07/27 11:25:58;;;;;;;12.05;4.82;;;;;;;35.48;30.12;100381.63;3492830;41;20041;-72
2021/07/27 11:28:37;;;;;;;7.65;4.78;;;;;;;36.09;27.94;100378.13;3492474;41;20057;-73
2021/07/27 11:31:15;;;;;;;5.90;4.90;;;;;;;36.40;29.11;100375.81;3492355;41;20384;-73
2021/07/27 11:33:52;;;;;;;7.22;4.82;;;;;;;35.50;28.97;100376.97;3491631;41;20041;-72
2021/07/27 11:36:24;;;;;;;8.93;5.13;;;;;;;36.11;28.59;100370.00;3492846;41;20044;-73
2021/07/27 11:38:50;;;;;;;8.93;5.78;;;;;;;35.28;29.64;100373.53;3484615;41;20038;-73
2021/07/27 11:41:19;;;;;;;9.13;5.00;;;;;;;35.86;28.49;100368.81;3492876;41;20084;-74
2021/07/27 11:43:48;;;;;;;7.53;4.40;;;;;;;36.73;30.15;100362.63;3489690;41;20024;-73
2021/07/27 11:46:16;;;;;;;7.57;5.20;;;;;;;36.77;27.45;100366.50;3522776;41;20086;-73
2021/07/27 11:48:42;;;;;;;5.63;4.88;;;;;;;36.85;27.93;100365.47;3522154;40;20126;-72
2021/07/27 11:51:08;;;;;;;6.50;4.97;;;;;;;36.69;27.12;100364.03;3523074;40;20040;-75
2021/07/27 11:53:38;;;;;;;7.47;5.00;;;;;;;36.37;28.22;100360.28;3522566;41;20053;-72
2021/07/27 11:56:15;;;;;;;10.45;5.25;;;;;;;35.96;28.57;100356.06;3522734;41;20040;-73
2021/07/27 11:58:41;;;;;;;7.70;5.10;;;;;;;35.80;28.79;100351.06;3522022;41;20051;-71
2021/07/27 12:01:06;;;;;;;11.45;4.90;;;;;;;36.31;29.12;100349.69;3513455;41;20106;-73
2021/07/27 12:03:32;;;;;;;8.23;4.80;;;;;;;36.81;28.08;100345.69;3513689;41;20033;-73
2021/07/27 12:05:57;;;;;;;6.95;5.10;;;;;;;36.85;28.00;100341.59;3522525;41;20036;-72
2021/07/27 12:08:48;;;;;;;7.85;4.75;;;;;;;36.40;27.25;100340.56;3522316;41;20091;-74
2021/07/27 12:11:13;;;;;;;11.18;5.30;;;;;;;37.15;28.83;100340.19;3512496;41;20047;-72
2021/07/27 12:13:39;;;;;;;7.90;5.25;;;;;;;36.64;27.45;100332.03;3513290;40;20025;-74
2021/07/27 12:16:05;;;;;;;8.18;5.20;;;;;;;36.91;27.90;100335.53;3504683;41;20041;-74
2021/07/27 12:18:30;;;;;;;8.38;5.30;;;;;;;37.07;27.81;100332.44;3513407;41;20058;-74
2021/07/27 12:20:55;;;;;;;7.13;5.10;;;;;;;36.13;27.75;100325.56;3513461;40;20392;-73
2021/07/27 12:23:21;;;;;;;7.47;5.20;;;;;;;36.88;27.71;100333.28;3504227;41;20056;-73
2021/07/27 12:25:47;;;;;;;7.78;4.70;;;;;;;37.44;27.64;100326.50;3502313;41;20057;-73
2021/07/27 12:28:14;;;;;;;8.63;5.15;;;;;;;37.32;27.12;100323.66;3511274;41;20217;-73
2021/07/27 12:30:39;;;;;;;9.15;5.47;;;;;;;36.75;27.56;100318.16;3510824;41;20041;-74
2021/07/27 12:33:05;;;;;;;7.55;5.22;;;;;;;37.49;27.47;100323.22;3510868;41;20219;-73
2021/07/27 12:35:32;;;;;;;6.25;5.20;;;;;;;36.07;28.34;100315.78;3511644;41;20507;-73
2021/07/27 12:37:58;;;;;;;13.05;5.20;;;;;;;37.42;27.20;100317.13;3511420;41;20052;-72
2021/07/27 12:40:23;;;;;;;7.10;5.25;;;;;;;36.61;28.47;100308.56;3503739;41;20040;-72
2021/07/27 12:42:49;;;;;;;8.48;5.13;;;;;;;37.07;27.12;100304.09;3502887;41;20033;-71
2021/07/27 12:45:14;;;;;;;11.70;5.05;;;;;;;36.94;27.78;100309.41;3511895;41;20036;-73
2021/07/27 12:47:40;;;;;;;9.63;5.80;;;;;;;36.56;28.41;100308.34;3512355;41;20045;-72
2021/07/27 12:50:06;;;;;;;10.25;5.38;;;;;;;36.23;28.29;100308.25;3511729;41;20456;-72
2021/07/27 12:52:32;;;;;;;10.02;5.32;;;;;;;37.02;27.49;100297.78;3504103;41;20033;-72
2021/07/27 12:54:58;;;;;;;7.65;5.15;;;;;;;36.51;28.59;100302.84;3512861;41;20039;-73
2021/07/27 12:57:23;;;;;;;13.70;5.32;;;;;;;37.05;27.38;100295.53;3503212;41;20127;-74
2021/07/27 12:59:49;;;;;;;13.43;5.70;;;;;;;36.57;28.37;100287.97;3503108;41;20053;-74
2021/07/27 13:02:16;;;;;;;7.50;5.28;;;;;;;37.55;28.05;100286.03;3511499;41;20408;-75
2021/07/27 13:04:41;;;;;;;8.20;5.60;;;;;;;36.64;28.54;100286.94;3511141;41;20409;-73
2021/07/27 13:07:07;;;;;;;6.22;5.22;;;;;;;36.82;27.76;100287.16;3511434;41;20043;-71
2021/07/27 13:15:59;;;;;;;12.65;5.50;;;;;;;36.85;27.55;100278.78;3510048;41;20089;-72
2021/07/27 13:18:25;;;;;;;7.50;5.35;;;;;;;36.89;28.14;100277.38;3512878;41;20037;-74
2021/07/27 13:25:48;;;;;;;12.48;5.32;;;;;;;37.27;27.87;100267.72;3530592;40;20076;-72
2021/07/27 13:30:43;;;;;;;8.90;5.20;;;;;;;36.76;27.75;100261.44;3511697;40;20452;-72
2021/07/27 13:33:08;;;;;;;7.68;5.43;;;;;;;36.62;28.49;100251.88;3512467;41;20032;-73
2021/07/27 13:40:42;;;;;;;9.73;5.43;;;;;;;37.05;28.12;100245.13;3562089;23;20452;-75
2021/07/27 13:45:52;;;;;;;5.55;5.00;;;;;;;37.58;27.45;100245.78;3520985;41;20439;-72
2021/07/27 13:48:18;;;;;;;6.68;5.18;;;;;;;36.86;27.75;100243.31;3521335;40;20032;-70
2021/07/27 13:50:43;;;;;;;10.95;5.47;;;;;;;36.73;28.50;100245.13;3521598;41;20383;-73
2021/07/27 13:53:09;;;;;;;9.57;5.65;;;;;;;36.82;27.77;100235.94;3521606;40;20044;-73
2021/07/27 13:55:35;;;;;;;9.88;6.00;;;;;;;37.01;27.53;100246.56;3513488;41;20044;-72
2021/07/27 14:00:29;;;;;;;7.72;5.57;;;;;;;37.11;27.35;100244.28;3520714;40;20112;-73
2021/07/27 14:02:55;;;;;;;7.70;5.90;;;;;;;36.73;27.70;100242.47;3520946;40;20052;-73
2021/07/27 14:05:22;;;;;;;8.18;5.40;;;;;;;36.93;28.05;100236.16;3521582;41;20060;-74
2021/07/27 14:07:49;;;;;;;6.60;5.43;;;;;;;37.71;26.88;100236.94;3513173;41;20032;-73
2021/07/27 14:10:15;;;;;;;9.23;5.45;;;;;;;37.22;27.34;100227.72;3503370;41;20626;-74
2021/07/27 14:12:40;;;;;;;7.38;5.60;;;;;;;36.99;27.99;100231.84;3503149;40;20037;-73
2021/07/27 14:15:06;;;;;;;10.73;5.55;;;;;;;37.40;27.37;100232.38;3493840;41;20086;-74
2021/07/27 14:17:34;;;;;;;9.35;5.30;;;;;;;36.96;27.89;100226.97;3494008;41;20080;-73
2021/07/27 14:30:19;;;;;;;11.20;5.43;;;;;;;36.92;28.57;100220.44;3431426;40;3697496;-75
2021/07/27 14:32:45;;;;;;;11.10;5.55;;;;;;;36.67;28.13;100228.19;3521860;41;20088;-72
2021/07/27 14:35:12;;;;;;;7.57;5.45;;;;;;;36.62;27.91;100228.00;3521798;41;20052;-70
2021/07/27 14:37:40;;;;;;;7.40;5.35;;;;;;;36.80;28.80;100230.03;3509858;41;20041;-72
2021/07/27 14:40:08;;;;;;;9.85;5.45;;;;;;;36.51;28.96;100226.78;3519081;41;20296;-72
2021/07/27 14:42:34;;;;;;;10.55;5.40;;;;;;;36.30;29.06;100223.47;3519639;41;20042;-77
2021/07/27 14:45:02;;;;;;;7.53;5.32;;;;;;;36.18;28.70;100219.81;3518374;41;20520;-72
2021/07/27 14:47:27;;;;;;;7.63;5.97;;;;;;;36.65;28.07;100224.94;3519389;41;20039;-74
2021/07/27 14:49:53;;;;;;;11.40;5.88;;;;;;;36.50;28.06;100219.88;3521207;41;20404;-75